Time;durP1;ratioP1;P1;durP2;ratioP2;P2;SDS_P1;SDS_P2;PMS_P1;PMS_P2;Temp;Humidity;BMP_temperature;BMP_pressure;BME280_temperature;BME280_humidity;BME280_pressure;Samples;Min_cycle;Max_cycle;Signal;HPM_P1;HPM_P2
2021/04/05 00:01:29;;;;;;;21.85;16.30;;;;;;;3.90;72.03;94940.69;5078692;28;20678;-72
2021/04/05 00:03:56;;;;;;;22.20;16.23;;;;;;;3.71;72.45;94941.63;5082641;28;20192;-76
2021/04/05 00:06:23;;;;;;;19.90;14.20;;;;;;;3.62;72.23;94956.66;5078795;28;20207;-69
2021/04/05 00:08:50;;;;;;;21.35;15.57;;;;;;;3.65;72.52;94951.03;5092580;28;20227;-73
2021/04/05 00:11:18;;;;;;;21.30;14.90;;;;;;;3.65;72.38;94950.28;5079806;28;20227;-73
2021/04/05 00:13:46;;;;;;;19.33;14.88;;;;;;;3.82;71.69;94940.94;5052381;28;20213;-73
2021/04/05 00:16:17;;;;;;;21.70;15.73;;;;;;;3.86;72.04;94953.28;5074204;28;20202;-76
2021/04/05 00:18:44;;;;;;;20.67;15.95;;;;;;;3.83;71.54;94952.91;5052580;28;20654;-75
2021/04/05 00:21:15;;;;;;;20.98;16.33;;;;;;;4.03;70.93;94956.91;5074246;28;20673;-73
2021/04/05 00:23:42;;;;;;;19.55;15.32;;;;;;;3.75;71.75;94938.41;5092536;28;20195;-77
2021/04/05 00:26:09;;;;;;;20.30;15.63;;;;;;;4.10;70.89;94949.88;5079822;28;20290;-73
2021/04/05 00:28:36;;;;;;;21.35;14.68;;;;;;;3.63;70.72;94952.28;5091808;28;20722;-70
2021/04/05 00:31:04;;;;;;;19.60;15.10;;;;;;;3.59;70.99;94945.91;5081340;28;20267;-75
2021/04/05 00:33:30;;;;;;;20.73;15.25;;;;;;;3.69;70.67;94952.22;5090781;28;20205;-68
2021/04/05 00:35:57;;;;;;;18.92;14.52;;;;;;;3.48;70.99;94957.75;5082354;28;20191;-71
2021/04/05 00:38:24;;;;;;;20.15;15.55;;;;;;;3.59;71.13;94953.69;5089677;28;20198;-72
2021/04/05 00:41:05;;;;;;;21.55;16.20;;;;;;;3.82;70.71;94964.25;5083534;28;20250;-70
2021/04/05 00:43:34;;;;;;;20.55;15.75;;;;;;;3.48;70.64;94957.75;5090626;28;20212;-74
2021/04/05 00:46:02;;;;;;;21.25;14.60;;;;;;;3.52;70.72;94945.94;5080198;28;20202;-71
2021/04/05 00:48:28;;;;;;;21.90;16.05;;;;;;;3.61;71.29;94955.03;5090036;28;20203;-69
2021/04/05 00:50:58;;;;;;;19.25;15.23;;;;;;;3.82;70.84;94956.50;5082240;28;20202;-75
2021/04/05 00:53:34;;;;;;;20.95;16.05;;;;;;;3.81;70.08;94949.72;5089918;28;20211;-71
2021/04/05 00:56:01;;;;;;;19.48;15.52;;;;;;;3.75;70.42;94950.56;5081962;28;20202;-71
2021/04/05 00:58:29;;;;;;;20.00;15.30;;;;;;;3.98;70.28;94948.97;5090053;28;20581;-70
2021/04/05 01:01:00;;;;;;;20.67;15.05;;;;;;;3.82;69.88;94944.34;5081699;28;20927;-72
2021/04/05 01:06:25;;;;;;;21.40;14.75;;;;;;;3.79;69.74;94956.94;5076580;28;20226;-73
2021/04/05 01:08:53;;;;;;;20.70;16.08;;;;;;;3.61;69.63;94949.09;5051301;28;20623;-74
2021/04/05 01:11:21;;;;;;;19.73;15.48;;;;;;;3.40;70.56;94945.06;5074050;28;20291;-77
2021/04/05 01:13:48;;;;;;;19.67;14.85;;;;;;;3.73;69.86;94952.56;5091824;28;20196;-66
2021/04/05 01:16:15;;;;;;;19.35;14.85;;;;;;;3.82;69.29;94954.69;5079163;28;20203;-70
2021/04/05 01:18:43;;;;;;;24.23;15.15;;;;;;;3.60;69.47;94952.66;5091267;28;20263;-66
2021/04/05 01:21:10;;;;;;;21.77;14.45;;;;;;;3.44;69.90;94927.28;5079964;28;20219;-68
2021/04/05 01:23:38;;;;;;;20.83;15.90;;;;;;;3.99;69.59;94957.56;5090996;28;20195;-69
2021/04/05 01:26:05;;;;;;;23.98;15.43;;;;;;;3.70;69.63;94963.38;5080087;28;20283;-71
2021/04/05 01:28:31;;;;;;;20.15;15.65;;;;;;;3.89;69.36;94952.03;5089554;28;20203;-70
2021/04/05 01:31:01;;;;;;;20.08;15.75;;;;;;;3.86;69.21;94957.66;5080799;28;20219;-72
2021/04/05 01:33:37;;;;;;;20.92;15.30;;;;;;;3.63;69.68;94949.69;5089403;28;20327;-73
2021/04/05 01:36:08;;;;;;;20.08;13.77;;;;;;;3.81;68.97;94955.69;5080229;28;20642;-73
2021/04/05 01:38:39;;;;;;;19.13;14.38;;;;;;;3.81;69.18;94962.69;5090248;28;20223;-72
2021/04/05 01:41:10;;;;;;;19.67;13.95;;;;;;;3.83;69.22;94960.69;5079887;28;20199;-72
2021/04/05 01:43:38;;;;;;;18.58;13.70;;;;;;;3.62;69.26;94955.84;5090225;28;20210;-72
2021/04/05 01:46:07;;;;;;;18.83;14.68;;;;;;;3.83;68.89;94961.47;5080525;28;20233;-72
2021/04/05 01:48:34;;;;;;;20.25;14.85;;;;;;;3.86;68.74;94968.81;5089536;28;20264;-72
2021/04/05 01:51:04;;;;;;;20.33;13.82;;;;;;;3.65;68.61;94953.63;5080552;28;20221;-73
2021/04/05 01:53:30;;;;;;;14.52;10.32;;;;;;;3.31;69.31;94961.03;5089327;28;20684;-72
2021/04/05 01:55:59;;;;;;;20.65;14.63;;;;;;;3.67;68.34;94958.59;5080777;28;20290;-73
2021/04/05 01:58:26;;;;;;;18.40;13.05;;;;;;;3.63;67.97;94952.28;5088103;28;20211;-71
2021/04/05 02:00:53;;;;;;;18.50;14.07;;;;;;;3.82;68.24;94957.28;5081207;28;20223;-73
2021/04/05 02:03:21;;;;;;;20.02;14.75;;;;;;;3.83;68.16;94958.09;5087233;28;20294;-71
2021/04/05 02:05:51;;;;;;;19.30;14.32;;;;;;;3.62;68.11;94966.22;5080292;28;20196;-69
2021/04/05 02:08:28;;;;;;;20.88;14.95;;;;;;;3.67;67.67;94958.59;5086930;28;20299;-71
2021/04/05 02:11:01;;;;;;;19.60;14.68;;;;;;;3.69;67.59;94972.13;5080982;28;20311;-72
2021/04/05 02:13:28;;;;;;;20.92;15.20;;;;;;;3.79;67.70;94967.28;5088751;28;20652;-72
2021/04/05 02:15:54;;;;;;;20.40;14.63;;;;;;;3.71;68.15;94959.75;5081104;28;20196;-74
2021/04/05 02:18:22;;;;;;;20.48;14.93;;;;;;;3.89;67.66;94963.22;5087866;28;20671;-71
2021/04/05 02:20:49;;;;;;;20.38;15.77;;;;;;;3.80;67.21;94961.09;5080899;28;20220;-68
2021/04/05 02:23:17;;;;;;;21.02;14.75;;;;;;;3.70;68.24;94963.38;5086210;28;20203;-73
2021/04/05 02:28:33;;;;;;;19.65;14.52;;;;;;;3.94;67.29;94965.19;5088443;28;20195;-71
2021/04/05 02:31:03;;;;;;;19.17;14.30;;;;;;;3.92;66.56;94962.00;5079330;28;20192;-72
2021/04/05 02:33:30;;;;;;;18.80;13.70;;;;;;;3.90;66.79;94953.66;5088501;28;20683;-73
2021/04/05 02:35:56;;;;;;;17.63;14.07;;;;;;;3.93;66.73;94958.38;5079894;28;20192;-72
2021/04/05 02:38:23;;;;;;;19.92;14.32;;;;;;;3.88;67.62;94960.84;5087594;28;20609;-72
2021/04/05 02:40:49;;;;;;;19.90;14.60;;;;;;;4.09;66.52;94968.22;5081022;28;20214;-75
2021/04/05 02:43:18;;;;;;;19.63;14.30;;;;;;;3.88;66.85;94966.03;5086324;28;20207;-72
2021/04/05 02:45:44;;;;;;;18.58;14.35;;;;;;;4.11;66.13;94961.00;5081795;28;20195;-75
2021/04/05 02:48:11;;;;;;;21.25;14.13;;;;;;;3.94;65.64;94971.13;5085559;28;20676;-74
2021/04/05 02:50:38;;;;;;;19.10;14.13;;;;;;;4.24;65.46;94966.09;5082547;28;20290;-71
2021/04/05 02:53:07;;;;;;;19.70;14.40;;;;;;;4.55;65.04;94968.56;5083343;28;20691;-74
2021/04/05 02:55:35;;;;;;;20.60;14.45;;;;;;;4.54;64.97;94967.00;5083464;28;20196;-69
2021/04/05 02:58:08;;;;;;;20.05;14.45;;;;;;;4.41;64.71;94971.50;5084536;28;20787;-70
2021/04/05 03:00:36;;;;;;;20.17;14.77;;;;;;;4.43;64.22;94970.28;5083504;28;20605;-73
2021/04/05 03:03:04;;;;;;;18.95;14.23;;;;;;;4.40;64.00;94968.13;5084376;28;20311;-72
2021/04/05 03:05:31;;;;;;;21.60;15.00;;;;;;;4.41;63.62;94972.31;5083832;28;20195;-75
2021/04/05 03:07:57;;;;;;;21.58;15.38;;;;;;;4.43;63.85;94970.28;5083381;28;20264;-67
2021/04/05 03:10:28;;;;;;;21.08;15.63;;;;;;;4.39;63.18;94965.75;5084683;28;20230;-69
2021/04/05 03:12:58;;;;;;;20.35;15.60;;;;;;;4.37;63.90;94976.34;5083288;28;20260;-70
2021/04/05 03:15:26;;;;;;;20.80;16.08;;;;;;;4.32;64.17;94968.41;5084441;28;20227;-69
2021/04/05 03:18:00;;;;;;;22.75;15.90;;;;;;;4.18;63.45;94972.13;5082503;28;20213;-71
2021/04/05 03:20:30;;;;;;;19.00;13.77;;;;;;;4.01;64.11;94976.28;5083313;28;20287;-70
2021/04/05 03:22:58;;;;;;;22.33;15.77;;;;;;;4.18;64.46;94979.91;5074950;28;20203;-73
2021/04/05 03:25:24;;;;;;;22.90;16.73;;;;;;;4.23;63.90;94974.88;5081898;28;20199;-71
2021/04/05 03:27:51;;;;;;;24.25;16.58;;;;;;;4.27;64.34;94986.41;5082996;28;20302;-73
2021/04/05 03:30:31;;;;;;;20.83;15.90;;;;;;;4.36;63.83;94987.69;5085275;28;20677;-73
2021/04/05 03:33:14;;;;;;;21.27;16.23;;;;;;;4.08;64.37;94979.59;5085637;28;20211;-73
2021/04/05 03:35:45;;;;;;;22.08;15.80;;;;;;;4.35;63.67;94978.34;5085332;28;20200;-73
2021/04/05 03:38:12;;;;;;;22.35;15.90;;;;;;;4.04;64.59;94974.06;5089019;28;20256;-73
2021/04/05 03:40:41;;;;;;;22.73;16.88;;;;;;;4.14;64.60;94986.53;5085429;28;20223;-71
2021/04/05 03:43:19;;;;;;;20.85;15.77;;;;;;;4.07;64.43;94980.59;5087013;28;20213;-72
2021/04/05 03:45:56;;;;;;;20.77;15.55;;;;;;;3.58;65.63;94975.41;5084442;28;20241;-71
2021/04/05 03:48:29;;;;;;;22.48;16.20;;;;;;;3.92;64.93;94982.75;5087055;28;20200;-71
2021/04/05 03:51:06;;;;;;;21.65;15.52;;;;;;;3.54;65.13;94984.63;5079701;28;20231;-73
2021/04/05 03:53:55;;;;;;;22.90;16.58;;;;;;;3.70;65.20;94986.69;5091549;28;20198;-72
2021/04/05 03:56:35;;;;;;;21.67;15.00;;;;;;;3.59;64.90;94987.38;5080013;28;20204;-69
2021/04/05 03:59:06;;;;;;;25.60;16.05;;;;;;;3.38;65.28;94977.31;5093265;28;20224;-70
2021/04/05 04:01:44;;;;;;;20.33;14.88;;;;;;;3.42;65.13;94975.91;5077823;28;20260;-72
2021/04/05 04:04:25;;;;;;;21.60;15.35;;;;;;;3.40;65.55;94970.16;5053141;28;20188;-70
2021/04/05 04:09:37;;;;;;;20.75;15.45;;;;;;;3.23;65.91;94982.78;5077627;28;20232;-70
2021/04/05 04:12:13;;;;;;;23.35;16.08;;;;;;;3.29;65.17;94968.22;5094642;28;20209;-69
2021/04/05 04:14:40;;;;;;;23.02;16.08;;;;;;;3.44;64.85;94976.50;5088821;28;20302;-69
2021/04/05 04:17:08;;;;;;;20.98;15.02;;;;;;;3.25;64.92;94980.78;5092263;28;20199;-71
2021/04/05 04:19:37;;;;;;;21.70;15.85;;;;;;;3.43;64.61;94977.53;5080044;28;20216;-75
2021/04/05 04:22:06;;;;;;;19.98;15.40;;;;;;;3.46;64.82;94987.44;5072860;28;20196;-72
2021/04/05 04:24:33;;;;;;;22.60;15.63;;;;;;;3.50;64.81;94983.44;5072427;28;20572;-71
2021/04/05 04:27:00;;;;;;;23.33;15.70;;;;;;;3.55;64.39;94981.00;5072515;28;20207;-72
2021/04/05 04:29:27;;;;;;;23.98;16.73;;;;;;;3.37;64.61;94978.34;5072529;28;20214;-72
2021/04/05 04:31:53;;;;;;;24.45;17.13;;;;;;;3.36;64.22;94982.72;5080004;28;20200;-69
2021/04/05 04:34:22;;;;;;;22.30;16.60;;;;;;;3.53;64.21;94980.44;5092424;28;20199;-72
2021/04/05 04:36:49;;;;;;;22.27;16.00;;;;;;;3.59;63.80;94966.66;5078006;28;20203;-74
2021/04/05 04:39:17;;;;;;;25.33;17.98;;;;;;;3.74;63.88;94980.88;5091536;28;20227;-71
2021/04/05 04:41:46;;;;;;;23.67;17.30;;;;;;;3.86;63.01;94978.41;5075001;28;20199;-68
2021/04/05 04:44:13;;;;;;;24.20;17.48;;;;;;;4.05;62.36;94987.81;5070096;28;20200;-70
2021/04/05 04:46:40;;;;;;;27.25;17.95;;;;;;;3.89;62.05;94988.31;5071901;28;20586;-70
2021/04/05 04:49:08;;;;;;;25.33;17.85;;;;;;;3.93;62.49;94989.50;5071797;28;20199;-71
2021/04/05 04:51:37;;;;;;;24.98;17.45;;;;;;;4.07;62.09;94990.97;5071790;28;20196;-69
2021/04/05 04:54:06;;;;;;;25.80;18.63;;;;;;;4.07;62.00;94980.59;5071639;28;20196;-74
2021/04/05 04:56:33;;;;;;;27.77;19.88;;;;;;;4.16;62.48;94989.69;5072766;28;20206;-75
2021/04/05 04:59:02;;;;;;;78.32;54.47;;;;;;;4.43;62.02;94992.84;5073294;28;20204;-73
2021/04/05 05:01:30;;;;;;;39.53;28.15;;;;;;;4.31;61.17;94991.94;5078305;28;20192;-75
2021/04/05 05:03:59;;;;;;;26.15;18.58;;;;;;;4.41;62.28;94993.06;5079335;28;20214;-77
2021/04/05 05:06:27;;;;;;;27.63;18.52;;;;;;;4.39;61.60;95000.25;5079068;28;20211;-78
2021/04/05 05:08:56;;;;;;;26.08;18.67;;;;;;;4.65;62.46;94999.97;5071754;28;20767;-78
2021/04/05 05:11:24;;;;;;;27.75;19.73;;;;;;;4.68;61.86;95014.34;5071874;28;20625;-79
2021/04/05 05:13:51;;;;;;;26.80;19.25;;;;;;;4.60;61.51;95002.44;5070199;28;20592;-77
2021/04/05 05:16:18;;;;;;;29.33;20.05;;;;;;;4.66;61.22;95009.38;5072576;28;20194;-75
2021/04/05 05:18:45;;;;;;;26.00;18.67;;;;;;;4.61;62.18;95011.81;5071737;28;20696;-74
2021/04/05 05:21:25;;;;;;;60.97;42.67;;;;;;;4.24;60.31;94934.97;5069932;28;20227;-78
2021/04/05 05:23:56;;;;;;;29.65;22.15;;;;;;;4.77;60.12;95010.44;5070120;28;20279;-74
2021/04/05 05:26:23;;;;;;;28.60;19.25;;;;;;;4.64;59.50;95011.38;5071819;28;20196;-73
2021/04/05 05:28:53;;;;;;;27.95;19.45;;;;;;;4.58;59.94;95014.06;5069665;28;20299;-74
2021/04/05 05:31:20;;;;;;;25.83;18.95;;;;;;;4.67;59.97;95017.94;5069601;28;20203;-74
2021/04/05 05:33:46;;;;;;;27.08;19.60;;;;;;;4.66;59.70;95006.78;5070582;28;20328;-72
2021/04/05 05:36:15;;;;;;;29.20;19.75;;;;;;;4.94;60.16;95025.25;5069841;28;20187;-73
2021/04/05 05:38:44;;;;;;;26.45;18.80;;;;;;;4.64;60.15;95026.94;5070528;28;20233;-72
2021/04/05 05:41:23;;;;;;;26.75;19.10;;;;;;;4.61;60.30;95026.59;5070032;28;20223;-75
2021/04/05 05:44:06;;;;;;;27.90;19.95;;;;;;;4.64;59.71;95029.53;5070523;28;20187;-74
2021/04/05 05:46:42;;;;;;;26.63;19.02;;;;;;;4.39;59.82;95015.81;5070393;28;20191;-72
2021/04/05 05:49:26;;;;;;;27.15;18.88;;;;;;;4.53;59.88;95022.47;5070843;28;20293;-74
2021/04/05 05:51:55;;;;;;;30.20;20.63;;;;;;;4.78;59.58;95030.97;5070572;28;20203;-73
2021/04/05 05:54:36;;;;;;;29.10;20.92;;;;;;;4.95;59.67;95031.19;5070367;28;20188;-74
2021/04/05 05:57:26;;;;;;;27.98;20.10;;;;;;;4.88;60.33;95031.28;5070259;28;20577;-73
2021/04/05 06:00:22;;;;;;;28.85;20.88;;;;;;;4.81;60.27;95033.16;5070596;28;20212;-75
2021/04/05 06:02:58;;;;;;;29.45;20.38;;;;;;;5.02;60.08;95037.91;5070899;28;20507;-73
2021/04/05 06:05:48;;;;;;;28.25;20.58;;;;;;;4.99;59.74;95040.16;5070022;28;20257;-74
2021/04/05 06:08:18;;;;;;;29.30;20.00;;;;;;;5.09;59.49;95041.22;5070187;28;20188;-74
2021/04/05 06:10:55;;;;;;;28.17;20.15;;;;;;;4.99;59.29;95037.56;5069025;28;20654;-73
2021/04/05 06:13:44;;;;;;;27.42;20.17;;;;;;;5.24;59.16;95045.28;5070386;28;20199;-74
2021/04/05 06:16:35;;;;;;;21.98;13.77;;;;;;;4.82;58.83;95046.91;5070478;28;20184;-73
2021/04/05 06:19:34;;;;;;;28.30;19.45;;;;;;;4.89;59.03;95043.25;5070323;28;20192;-72
2021/04/05 06:22:15;;;;;;;26.95;19.40;;;;;;;5.03;58.98;95054.28;5065495;28;20273;-73
2021/04/05 06:25:06;;;;;;;26.88;18.88;;;;;;;5.33;59.72;95051.75;5070464;28;20692;-74
2021/04/05 06:27:50;;;;;;;25.80;18.65;;;;;;;5.23;58.55;95056.66;5070313;28;20187;-73
2021/04/05 06:30:27;;;;;;;29.88;18.92;;;;;;;5.15;58.25;95053.34;5069656;28;20196;-73
2021/04/05 06:33:05;;;;;;;26.58;18.67;;;;;;;5.17;58.61;95066.13;5070078;28;20196;-73
2021/04/05 06:35:55;;;;;;;26.85;18.83;;;;;;;5.35;57.19;95054.91;5069931;28;20188;-73
2021/04/05 06:38:49;;;;;;;30.17;19.50;;;;;;;5.80;57.52;95064.69;5070214;28;20204;-74
2021/04/05 06:41:31;;;;;;;26.20;18.85;;;;;;;5.78;57.29;95065.94;5069171;28;20235;-74
2021/04/05 06:44:16;;;;;;;28.33;17.92;;;;;;;4.75;58.76;95066.97;5070062;28;20207;-71
2021/04/05 06:47:06;;;;;;;28.48;19.13;;;;;;;5.10;58.57;95061.00;5069994;28;20546;-72
2021/04/05 06:50:07;;;;;;;25.75;17.80;;;;;;;5.20;57.97;95064.91;5070012;28;20271;-77
2021/04/05 06:53:00;;;;;;;27.45;17.13;;;;;;;5.51;57.55;95070.69;5070385;28;20203;-76
2021/04/05 06:55:40;;;;;;;29.55;19.65;;;;;;;5.36;57.50;95074.69;5070104;28;20270;-71
2021/04/05 06:58:24;;;;;;;27.45;17.00;;;;;;;5.43;56.86;95065.00;5070091;28;20206;-74
2021/04/05 07:01:13;;;;;;;25.98;18.20;;;;;;;5.70;56.02;95074.03;5070023;28;20215;-74
2021/04/05 07:03:56;;;;;;;28.48;18.98;;;;;;;6.03;55.29;95066.59;5068642;28;20199;-72
2021/04/05 07:06:59;;;;;;;32.13;20.35;;;;;;;5.88;55.40;95061.81;5070013;28;20208;-71
2021/04/05 07:09:38;;;;;;;44.15;22.63;;;;;;;6.00;55.62;95072.25;5073769;28;20234;-72
2021/04/05 07:12:33;;;;;;;29.05;18.60;;;;;;;6.30;55.08;95062.56;5073902;28;20284;-72
2021/04/05 07:15:18;;;;;;;29.02;19.08;;;;;;;6.60;55.83;95073.72;5073771;28;20180;-72
2021/04/05 07:18:09;;;;;;;26.23;18.48;;;;;;;6.80;54.86;95074.16;5073845;28;20224;-74
2021/04/05 07:21:13;;;;;;;26.20;19.20;;;;;;;7.25;55.69;95076.91;5073303;28;20230;-73
2021/04/05 07:24:07;;;;;;;29.83;19.77;;;;;;;7.11;53.58;95070.38;5073882;28;20188;-74
2021/04/05 07:26:48;;;;;;;25.10;18.20;;;;;;;7.20;53.71;95079.44;5073342;28;20286;-73
2021/04/05 07:29:22;;;;;;;24.33;17.23;;;;;;;7.02;52.75;95077.78;5073205;28;20199;-76
2021/04/05 07:32:22;;;;;;;23.42;17.23;;;;;;;7.09;54.16;95081.03;5071687;28;20284;-73
2021/04/05 07:35:01;;;;;;;22.50;16.75;;;;;;;7.10;52.15;95074.78;5064831;28;20310;-76
2021/04/05 07:37:35;;;;;;;26.88;17.25;;;;;;;6.85;52.27;95089.88;5073322;28;20192;-72
2021/04/05 07:40:13;;;;;;;23.85;17.40;;;;;;;7.09;51.59;95086.25;5073083;28;20225;-75
2021/04/05 07:42:46;;;;;;;25.50;18.17;;;;;;;7.05;53.00;95087.72;5073151;28;20583;-76
2021/04/05 07:45:24;;;;;;;25.13;18.13;;;;;;;7.53;53.20;95078.78;5072995;28;20237;-72
2021/04/05 07:48:10;;;;;;;25.48;18.90;;;;;;;7.83;53.04;95087.97;5072462;28;20214;-75
2021/04/05 07:50:55;;;;;;;29.73;20.08;;;;;;;7.78;52.40;95081.84;5072792;28;20195;-73
2021/04/05 07:53:35;;;;;;;23.48;17.58;;;;;;;7.43;51.63;95078.56;5073108;28;20214;-76
2021/04/05 07:56:26;;;;;;;24.98;17.15;;;;;;;7.69;50.50;95086.66;5072647;28;20616;-71
2021/04/05 07:59:30;;;;;;;20.67;15.40;;;;;;;7.64;50.26;95091.00;5073263;28;20274;-73
2021/04/05 08:01:59;;;;;;;24.27;16.38;;;;;;;7.45;50.33;95092.16;5072926;28;20727;-72
2021/04/05 08:04:59;;;;;;;26.48;18.27;;;;;;;7.58;51.27;95086.69;5073510;28;20600;-72
2021/04/05 08:07:45;;;;;;;24.38;17.92;;;;;;;7.62;52.25;95098.25;5072795;28;20284;-75
2021/04/05 08:10:55;;;;;;;24.58;18.38;;;;;;;7.90;53.03;95096.44;5072133;28;20223;-74
2021/04/05 08:13:34;;;;;;;25.98;19.30;;;;;;;7.94;53.08;95087.13;5072804;28;20274;-76
2021/04/05 08:16:25;;;;;;;27.58;19.30;;;;;;;8.17;53.23;95094.81;5072337;28;20196;-73
2021/04/05 08:19:05;;;;;;;26.92;19.13;;;;;;;8.10;53.06;95085.59;5071402;28;20241;-72
2021/04/05 08:21:54;;;;;;;26.02;19.00;;;;;;;8.12;52.21;95093.94;5072180;28;20222;-74
2021/04/05 08:24:38;;;;;;;23.67;17.80;;;;;;;8.21;49.94;95092.56;5071537;28;20235;-73
2021/04/05 08:27:22;;;;;;;105.83;56.63;;;;;;;8.09;49.99;95084.78;5074188;28;20441;-72
2021/04/05 08:30:07;;;;;;;25.08;17.38;;;;;;;7.57;50.44;95098.16;5073628;28;21031;-72
2021/04/05 08:32:52;;;;;;;22.17;16.58;;;;;;;7.94;48.87;95086.31;5076512;28;20937;-72
2021/04/05 08:35:34;;;;;;;23.88;16.02;;;;;;;8.15;48.84;95072.63;5072528;28;20195;-75
2021/04/05 08:38:30;;;;;;;23.70;16.90;;;;;;;8.49;48.95;95079.47;5072099;28;20207;-71
2021/04/05 08:41:20;;;;;;;22.48;17.00;;;;;;;8.47;48.38;95091.16;5072059;28;20230;-74
2021/04/05 08:44:00;;;;;;;24.55;17.23;;;;;;;8.79;50.17;95089.59;5072144;28;20278;-75
2021/04/05 08:46:32;;;;;;;20.98;14.88;;;;;;;9.03;49.16;95085.75;5071935;28;20265;-72
2021/04/05 08:49:02;;;;;;;25.73;17.63;;;;;;;8.87;47.81;95084.75;5072056;28;20180;-73
2021/04/05 08:51:47;;;;;;;23.20;17.33;;;;;;;8.83;48.58;95062.72;5072355;28;20192;-71
2021/04/05 08:54:23;;;;;;;22.77;16.27;;;;;;;9.15;48.33;95079.41;5071787;28;20644;-75
2021/04/05 08:56:59;;;;;;;19.52;14.43;;;;;;;8.63;47.51;95075.50;5071408;28;20210;-76
2021/04/05 08:59:31;;;;;;;20.43;14.17;;;;;;;8.52;46.99;95075.59;5071582;28;20218;-77
2021/04/05 09:02:06;;;;;;;20.45;15.13;;;;;;;8.81;46.94;95077.84;5071644;28;20537;-77
2021/04/05 09:04:35;;;;;;;18.77;14.15;;;;;;;9.01;46.08;95064.31;5071921;28;20187;-76
2021/04/05 09:07:27;;;;;;;19.00;14.00;;;;;;;8.77;45.91;95071.53;5071515;28;20203;-73
2021/04/05 09:09:56;;;;;;;18.40;14.25;;;;;;;9.22;46.89;95068.75;5071262;28;20864;-75
2021/04/05 09:12:26;;;;;;;17.50;13.40;;;;;;;9.34;46.83;95068.63;5071663;28;20212;-71
2021/04/05 09:14:55;;;;;;;19.20;15.13;;;;;;;9.40;45.60;95070.28;5071516;28;20441;-76
2021/04/05 09:17:40;;;;;;;15.27;12.23;;;;;;;7.93;45.55;95074.31;5071266;28;20475;-71
2021/04/05 09:20:51;;;;;;;18.85;13.70;;;;;;;7.98;47.14;95069.19;5070912;28;20322;-74
2021/04/05 09:23:45;;;;;;;22.52;16.27;;;;;;;8.66;45.56;95067.19;5047632;28;20204;-73
2021/04/05 09:26:40;;;;;;;20.80;14.38;;;;;;;9.23;44.56;95064.31;5070695;28;20206;-76
2021/04/05 09:29:10;;;;;;;18.63;13.23;;;;;;;9.47;45.38;95049.97;5071332;28;20211;-76
2021/04/05 09:31:55;;;;;;;17.23;13.13;;;;;;;9.75;44.50;95054.97;5070515;28;21024;-75
2021/04/05 09:34:55;;;;;;;15.00;11.43;;;;;;;10.29;43.85;95051.38;5070958;28;20200;-72
2021/04/05 09:37:25;;;;;;;15.33;10.97;;;;;;;10.50;41.12;95054.91;5071009;28;20487;-72
2021/04/05 09:40:09;;;;;;;15.10;11.50;;;;;;;10.80;41.75;95050.66;5070723;28;20495;-72
2021/04/05 09:43:16;;;;;;;15.23;11.37;;;;;;;10.82;41.29;95038.09;5071257;28;20442;-75
2021/04/05 09:45:55;;;;;;;15.57;12.30;;;;;;;11.35;41.10;95031.81;5070620;28;20434;-74
2021/04/05 09:48:46;;;;;;;17.90;13.03;;;;;;;11.13;42.71;95047.72;5070908;28;20526;-72
2021/04/05 09:51:27;;;;;;;20.67;13.67;;;;;;;10.75;41.66;95045.41;5070289;28;20445;-77
2021/04/05 09:54:07;;;;;;;19.47;13.87;;;;;;;10.10;42.59;95034.41;5070766;28;20855;-73
2021/04/05 09:56:42;;;;;;;30.97;18.63;;;;;;;9.66;42.79;95032.91;5068872;28;20440;-75
2021/04/05 09:59:12;;;;;;;17.67;13.90;;;;;;;9.82;42.27;95022.34;5070291;28;20433;-74
2021/04/05 10:01:40;;;;;;;101.67;54.17;;;;;;;9.92;43.20;95021.66;5071096;28;20577;-74
2021/04/05 10:04:16;;;;;;;17.50;13.17;;;;;;;10.47;41.68;95019.53;5071119;28;20434;-77
2021/04/05 10:06:43;;;;;;;18.27;12.73;;;;;;;11.03;41.58;95010.97;5069129;28;20445;-73
2021/04/05 10:09:11;;;;;;;16.30;12.77;;;;;;;11.38;41.08;94993.81;5070477;28;21021;-76
2021/04/05 10:11:42;;;;;;;17.90;12.70;;;;;;;12.02;40.44;94963.53;5068980;28;20438;-74
2021/04/05 10:14:14;;;;;;;18.23;13.37;;;;;;;12.49;40.76;94984.25;5070818;28;20438;-73
2021/04/05 10:16:47;;;;;;;14.07;11.77;;;;;;;12.64;39.08;94971.09;5070680;28;20529;-75
2021/04/05 10:19:16;;;;;;;16.77;13.27;;;;;;;13.13;39.71;94970.22;5069086;28;20446;-73
2021/04/05 10:21:50;;;;;;;14.70;12.43;;;;;;;13.48;39.52;94960.56;5070241;28;20539;-77
2021/04/05 10:24:21;;;;;;;16.37;11.90;;;;;;;13.65;37.99;94961.78;5070422;28;20441;-72
2021/04/05 10:26:52;;;;;;;15.43;12.43;;;;;;;13.78;38.44;94960.38;5068756;28;20576;-76
2021/04/05 10:29:22;;;;;;;14.70;11.30;;;;;;;13.83;38.36;94963.00;5070515;28;20512;-75
2021/04/05 10:31:49;;;;;;;15.87;11.50;;;;;;;14.13;36.57;94952.25;5070288;28;20952;-75
2021/04/05 10:34:21;;;;;;;13.33;11.43;;;;;;;14.06;35.64;94946.50;5070779;28;20434;-74
2021/04/05 10:36:51;;;;;;;13.60;11.80;;;;;;;13.75;35.21;94945.13;5070077;28;20431;-78
2021/04/05 10:39:17;;;;;;;15.03;11.33;;;;;;;13.48;35.92;94947.41;5070956;28;20540;-70
2021/04/05 10:42:05;;;;;;;13.43;11.00;;;;;;;13.89;36.39;94946.09;5070082;28;20473;-75
2021/04/05 10:44:37;;;;;;;19.50;12.13;;;;;;;14.26;36.34;94930.53;5071455;28;20442;-75
2021/04/05 10:47:09;;;;;;;13.87;12.37;;;;;;;14.25;36.64;94939.47;5069798;28;20461;-73
2021/04/05 10:49:39;;;;;;;15.53;11.60;;;;;;;14.18;34.79;94939.81;5070173;28;20442;-76
2021/04/05 10:52:06;;;;;;;16.07;13.13;;;;;;;13.44;34.72;94943.75;5069699;28;20438;-77
2021/04/05 10:54:37;;;;;;;14.67;12.00;;;;;;;12.84;34.81;94935.03;5070157;28;20964;-75
2021/04/05 10:57:06;;;;;;;14.47;12.00;;;;;;;13.28;35.18;94923.81;5069868;28;20456;-75
2021/04/05 11:00:05;;;;;;;14.57;12.83;;;;;;;14.15;34.12;94923.78;5069557;28;20823;-72
2021/04/05 11:02:49;;;;;;;16.83;12.87;;;;;;;13.50;34.39;94916.34;5069629;28;20473;-76
2021/04/05 11:05:19;;;;;;;14.43;11.87;;;;;;;12.38;35.62;94924.88;5069806;28;20536;-73
2021/04/05 11:07:53;;;;;;;14.83;12.43;;;;;;;13.40;36.80;94906.66;5069971;28;20437;-73
2021/04/05 11:10:21;;;;;;;15.07;12.23;;;;;;;14.31;36.49;94912.06;5068426;28;20480;-73
2021/04/05 11:12:55;;;;;;;15.73;12.13;;;;;;;14.80;35.43;94873.03;5069937;28;20474;-73
2021/04/05 11:15:24;;;;;;;16.13;13.03;;;;;;;15.02;34.07;94891.78;5069612;28;20429;-75
2021/04/05 11:17:54;;;;;;;15.03;12.13;;;;;;;15.68;32.02;94872.44;5070225;28;20461;-76
2021/04/05 11:20:26;;;;;;;14.93;11.70;;;;;;;15.82;32.78;94865.38;5069476;28;20487;-76
2021/04/05 11:23:02;;;;;;;13.57;11.73;;;;;;;16.53;34.10;94868.38;5069843;28;20497;-76
2021/04/05 11:25:35;;;;;;;14.23;11.17;;;;;;;17.28;31.08;94862.69;5069688;28;20957;-78
2021/04/05 11:28:08;;;;;;;12.33;10.30;;;;;;;16.20;30.64;94859.69;5070048;28;20889;-76
2021/04/05 11:30:38;;;;;;;13.27;10.80;;;;;;;16.69;31.27;94861.75;5068374;28;20437;-73
2021/04/05 11:33:08;;;;;;;18.53;12.10;;;;;;;16.63;32.39;94854.19;5069694;28;20448;-76
2021/04/05 11:35:36;;;;;;;15.40;11.80;;;;;;;16.51;31.66;94848.59;5069642;28;20435;-72
2021/04/05 11:38:07;;;;;;;15.53;12.17;;;;;;;16.64;31.30;94848.59;5070076;28;20422;-75
2021/04/05 11:40:35;;;;;;;12.90;11.33;;;;;;;16.66;30.32;94829.81;5069490;28;20572;-72
2021/04/05 11:43:10;;;;;;;15.77;12.20;;;;;;;16.48;29.95;94834.09;5069566;28;20444;-76
2021/04/05 11:46:05;;;;;;;14.07;11.70;;;;;;;16.02;31.55;94825.41;5069846;28;20963;-72
2021/04/05 11:48:31;;;;;;;13.73;12.00;;;;;;;16.43;31.89;94804.28;5068706;28;20462;-75
2021/04/05 11:51:00;;;;;;;12.53;10.90;;;;;;;16.48;30.33;94818.22;5069086;28;20426;-74
2021/04/05 11:53:51;;;;;;;13.67;10.60;;;;;;;16.56;29.45;94812.25;5071441;28;20507;-72
2021/04/05 11:56:23;;;;;;;13.10;10.87;;;;;;;16.82;30.65;94813.31;5071814;28;20601;-73
2021/04/05 11:58:58;;;;;;;12.47;11.13;;;;;;;17.31;31.22;94814.41;5073286;28;20448;-72
2021/04/05 12:01:26;;;;;;;14.03;11.73;;;;;;;17.26;30.71;94806.59;5072597;28;20579;-78
2021/04/05 12:03:59;;;;;;;13.60;11.97;;;;;;;17.77;29.95;94797.16;5073013;28;20951;-76
2021/04/05 12:06:38;;;;;;;14.23;11.30;;;;;;;17.69;29.84;94789.16;5072512;28;20437;-77
2021/04/05 12:09:25;;;;;;;13.23;11.53;;;;;;;17.78;30.00;94787.38;5072625;28;20497;-75